Airport ID:KRTS
Update Time (UTC):16/08/2018 02:02
Wind Speed (Knots):16
Wind Direction (Magnetic):290
Temperature (°C):28
Dew Point (°C):2
Humidity (%):19
Altimeter (inHg):30.08
Density Altitude (Feet):7600
Visibility (Miles):10+
Clouds (Hundreds of feet):CLR
Present Weather:
METAR:METAR KRTS 160200Z AUTO 31015G21KT 10SM CLR 28/02 A3007 RMK AO2

The data displayed is for advisory purposes only and is not to be used for flight planning or operations.

This page is not automatically refreshed. Reload the page to see current data.